AirNav   Air Wisconsin Up To $57,000 Bonus
 
 683 users online  

4IS3 University of Chicago Hospitals Heliport
Chicago, Illinois, USA

GOING TO CHICAGO?


FAA INFORMATION EFFECTIVE 20 JUNE 2019

Location

FAA Identifier: 4IS3
Lat/Long: 41-47-27.3700N / 087-36-19.4300W
41-47.456167N / 087-36.323833W
41.7909361 / -87.6053972
(estimated)
Elevation: 665 ft. / 203 m (estimated)
Variation: 01W (1984)
Time zone: UTC -5 (UTC -6 during Standard Time)
Zip code: 60637

Heliport Operations

Heliport use: Private use, MEDICAL USE.
Activation date: 02/1984
Control tower: no
ARTCC: CHICAGO CENTER
FSS: KANKAKEE FLIGHT SERVICE STATION
Attendance: CONTINUOUS
Wind indicator: yes
Segmented circle: no
Lights: PERIMETER LGTS OPR 24 HRS.
Beacon: white-green-yellow (heliport)
24 HRS

Heliport Communications

WX ASOS at MDW (7 nm W): PHONE 773-884-4424
WX AWOS-3PT at GYY (13 nm SE): 134.575 (219-944-0010)
WX AWOS-3 at IGQ (16 nm S): 119.275 (708-895-9526)
WX ASOS at ORD (17 nm NW): PHONE 773-462-0118
  • FREQ 129.475 AVBL FOR MEDICAL CNTR.

Nearby radio navigation aids

VOR radial/distance  VOR name  Freq  Var
CGTr353/16.9CHICAGO HEIGHTS VORTAC114.2002E
OBKr151/30.1NORTHBROOK VOR/DME113.0002W
EONr013/32.4PEOTONE VORTAC113.2002E
DPAr098/33.8DUPAGE VOR/DME108.4002E
JOTr063/35.2JOLIET VOR/DME112.3002E

Heliport Services

Runway Information

Helipad H1

Dimensions: 38 x 30 ft. / 12 x 9 m
Surface: pierced steel planking
ROOFTOP.
Runway edge lights: PERI
Latitude: 41-47.345500N
Longitude: 087-36.219500W
Elevation: 665.0 ft.
Traffic pattern: leftleft

Helipad H2

Dimensions: 50 x 50 ft. / 15 x 15 m
Surface: mats
Latitude: 41-47.458167N
Longitude: 087-36.325500W
Elevation: 665.0 ft.
Traffic pattern: leftleft

Heliport Ownership and Management from official FAA records

Ownership: Privately-owned
Owner: UNIV CHICAGO HOSPITALS
5841 S MARYLAND, MC 0952, RM C-38
CHICAGO, IL 60637
Phone 312-702-3222
Manager: DR. IRA BLUMEN
5841 S MARYLAND, MC 0952, RM C-38
CHICAGO, IL 60637
Phone 773-702-3222
EMAIL ADDRESS: IRA.BLUMEN@UCHOSPITALS.EDU (ALL LOWER CASE)

Heliport Operational Statistics

Aircraft based on the field: 1
Helicopters: 1
    

Additional Remarks

FOR CD CTC CHICAGO APCH AT 847-289-0926.

Instrument Procedures

There are no published instrument procedures at 4IS3.

Some nearby airports with instrument procedures:

KMDW - Chicago Midway International Airport (7 nm W)
KGYY - Gary/Chicago International Airport (13 nm SE)
KIGQ - Lansing Municipal Airport (16 nm S)
KORD - Chicago O'Hare International Airport (17 nm NW)
05C - Griffith-Merrillville Airport (19 nm SE)
 
Loc | Ops | Rwys | IFR | FBO | Links
Com | Nav | Svcs | Stats | Notes
Area around 4IS3 (University of Chicago Hospitals Heliport)
 
Road maps at: MapQuest Bing Google
 
Aerial photo
No photo
 
Sectional chart

 
Airport distance calculator
Flying to University of Chicago Hospitals Heliport? Find the distance to fly.

From to 4IS3

Sunrise and sunset
Times for 27-Jun-2019
 Local
(UTC-5)
 Zulu
(UTC)
Morning civil twilight04:4409:44
Sunrise05:1810:18
Sunset20:2801:28
Evening civil twilight21:0302:03

Current date and time
Zulu (UTC)  27-Jun-2019 11:39:29
Local (UTC-5)  27-Jun-2019 06:39:29
 
METAR
4IS3 SuperAWOS
271115Z AUTO 36007KT 270V090 10SM 21/18 A3017
KMDW 
6nm W 
271053Z 25005KT 10SM FEW200 BKN250 21/18 A3013 RMK AO2 SLP193 T02060183
KGYY 
13nm SE 
271045Z 00000KT 10SM SCT100 OVC250 19/19 A3014
KIGQ 
16nm S 
271115Z AUTO 00000KT 10SM CLR 19/19 A3014 RMK AO2 T01900190
KORD 
19nm NW 
271051Z 22003KT 10SM FEW200 BKN250 20/18 A3013 RMK AO2 SLP198 T02000178
TAF
KMDW 
6nm W 
270901Z 2709/2812 19008KT P6SM FEW050 BKN250 FM271400 17008KT P6SM SCT050 BKN250 FM272100 19009KT P6SM SCT050 BKN250 PROB30 2721/2801 3SM TSRA BKN040CB FM280200 18006KT P6SM SCT070 BKN250
KGYY 
13nm SE 
270901Z 2709/2806 19008KT P6SM FEW050 BKN250 FM271400 16008KT P6SM SCT050 BKN250 FM272100 10009KT P6SM SCT050 BKN250 PROB30 2721/2801 3SM TSRA BKN040CB FM280200 18006KT P6SM SCT070 BKN250
KORD 
19nm NW 
270901Z 2709/2812 19008KT P6SM FEW050 BKN250 FM271400 17008KT P6SM SCT050 BKN250 FM272100 19009KT P6SM SCT050 BKN250 PROB30 2721/2801 3SM TSRA BKN040CB FM280200 18006KT P6SM SCT070 BKN250
NOTAMs
Click for the latest NOTAMs
NOTAMs are issued by the DoD/FAA and will open in a separate window not controlled by AirNav.

 

 
 

Would you like to see your business listed on this page?

 If your business provides an interesting product or service to pilots, flight crews, aircraft, or users of the University of Chicago Hospitals Heliport, you should consider listing it here.  To start the listing process, click on the button below
 
Add a business
 

Other Pages about University of Chicago Hospitals Heliport

Update a link
 
Copyright © AirNav, LLC. All rights reserved. Privacy Policy  Contact